Time;durP1;ratioP1;P1;durP2;ratioP2;P2;SDS_P1;SDS_P2;PMS_P1;PMS_P2;Temp;Humidity;BMP_temperature;BMP_pressure;BME280_temperature;BME280_humidity;BME280_pressure;Samples;Min_cycle;Max_cycle;Signal;HPM_P1;HPM_P2
2022/06/17 06:12:56;;;;;;;126.93;28.73;;;;;;;18.15;51.76;97331.94;2081734;28;20555;-56
2022/06/17 06:13:57;;;;;;;166.60;89.80;;;;;;;18.35;51.09;97329.81;2082551;28;20211;-56
2022/06/17 06:14:59;;;;;;;174.55;103.35;;;;;;;18.43;51.03;97330.97;2085281;28;20197;-57
2022/06/17 06:16:01;;;;;;;196.38;155.20;;;;;;;18.49;51.07;97337.69;2083040;28;20205;-56
2022/06/17 06:17:04;;;;;;;238.25;212.48;;;;;;;18.61;50.71;97328.06;2072701;28;20640;-56
2022/06/17 06:18:07;;;;;;;340.85;309.55;;;;;;;18.75;50.58;97330.66;2082529;28;20196;-56
2022/06/17 06:19:08;;;;;;;354.27;322.20;;;;;;;18.77;50.38;97301.44;2074474;28;20213;-56
2022/06/17 06:20:10;;;;;;;276.65;250.27;;;;;;;19.00;49.92;97329.03;2067337;28;20307;-56
2022/06/17 06:21:12;;;;;;;218.52;195.23;;;;;;;19.08;49.50;97323.19;2065521;28;20252;-56
2022/06/17 06:22:13;;;;;;;205.13;163.85;;;;;;;19.10;49.20;97323.97;2065867;28;20674;-56
2022/06/17 06:23:15;;;;;;;179.43;119.65;;;;;;;19.09;49.56;97320.44;2060515;28;20229;-56
2022/06/17 06:24:16;;;;;;;153.57;79.50;;;;;;;19.06;49.57;97320.66;2063000;28;20198;-56
2022/06/17 06:25:19;;;;;;;139.52;41.80;;;;;;;19.11;49.16;97319.50;2063520;28;20206;-56
2022/06/17 06:26:21;;;;;;;128.80;39.30;;;;;;;19.10;48.78;97313.38;2066485;28;20202;-56
2022/06/17 06:27:22;;;;;;;150.70;57.28;;;;;;;18.95;50.13;97309.13;2065573;28;20276;-56
2022/06/17 06:28:26;;;;;;;144.52;33.88;;;;;;;19.20;49.48;97317.06;2064992;28;20514;-56
2022/06/17 06:29:27;;;;;;;159.23;34.00;;;;;;;19.45;48.57;97319.81;2067822;28;20202;-56
2022/06/17 06:30:30;;;;;;;132.60;22.05;;;;;;;19.41;48.04;97322.69;2063387;28;20202;-56
2022/06/17 07:02:14;;;;;;;136.13;51.85;;;;;;;19.82;47.27;97325.13;2089261;27;20543;-57
2022/06/17 07:03:18;;;;;;;128.18;29.23;;;;;;;19.83;46.89;97324.22;2078851;28;20192;-57
2022/06/17 07:04:19;;;;;;;139.90;42.33;;;;;;;20.04;46.70;97341.22;2079899;28;20200;-57
2022/06/17 07:05:21;;;;;;;122.45;16.55;;;;;;;20.23;46.17;97337.25;2079474;28;20201;-57
2022/06/17 07:06:22;;;;;;;125.32;16.40;;;;;;;20.36;45.79;97330.06;2078763;28;20207;-57
2022/06/17 07:07:24;;;;;;;124.30;21.42;;;;;;;20.34;46.17;97339.09;2079445;28;20877;-57
2022/06/17 07:08:30;;;;;;;141.65;43.45;;;;;;;20.56;45.30;97335.72;2079418;28;20208;-56
2022/06/17 07:09:32;;;;;;;163.75;83.28;;;;;;;20.50;45.63;97330.88;2082705;28;20204;-57
2022/06/17 07:10:35;;;;;;;168.32;99.22;;;;;;;20.56;45.53;97335.72;2083089;28;20554;-57
2022/06/17 07:11:36;;;;;;;160.20;77.53;;;;;;;20.66;45.48;97330.59;2083451;28;20196;-57
2022/06/17 07:12:38;;;;;;;188.90;126.30;;;;;;;20.82;45.24;97343.56;2083850;28;20224;-57
2022/06/17 07:13:39;;;;;;;185.05;124.63;;;;;;;20.75;45.49;97335.22;2082555;28;20196;-57
2022/06/17 07:14:41;;;;;;;182.15;115.78;;;;;;;21.04;45.06;97332.19;2080655;28;20193;-57
2022/06/17 07:15:45;;;;;;;161.50;87.53;;;;;;;20.92;44.92;97336.59;2082455;28;20562;-57
2022/06/17 07:16:47;;;;;;;148.55;54.05;;;;;;;21.12;44.40;97336.91;2080264;28;20204;-57
2022/06/17 07:17:56;;;;;;;145.52;52.80;;;;;;;20.41;45.96;97329.75;2080619;28;20204;-56
2022/06/17 07:18:57;;;;;;;140.48;47.47;;;;;;;20.76;45.05;97342.22;2080807;28;20640;-57
2022/06/17 07:19:59;;;;;;;133.57;52.67;;;;;;;20.97;45.07;97352.19;2081846;28;20390;-57
2022/06/17 07:21:04;;;;;;;143.75;60.90;;;;;;;21.24;44.54;97345.72;2083132;28;20211;-56
2022/06/17 07:22:05;;;;;;;136.48;56.35;;;;;;;20.92;45.31;97333.09;2083799;28;20853;-57
2022/06/17 07:48:18;;;;;;;145.25;47.65;;;;;;;22.10;42.31;97351.44;2118789;27;20565;-57
2022/06/17 07:49:21;;;;;;;139.73;39.88;;;;;;;21.68;43.13;97344.94;2116338;28;20241;-57
2022/06/17 07:50:33;;;;;;;167.95;94.40;;;;;;;22.31;41.95;97343.53;2105864;28;20210;-57
2022/06/17 07:51:35;;;;;;;204.88;153.02;;;;;;;22.41;41.56;97343.63;2100184;28;20191;-57
2022/06/17 07:52:36;;;;;;;257.30;229.13;;;;;;;22.18;42.24;97335.69;2103255;28;20230;-59
2022/06/17 07:53:42;;;;;;;298.50;268.08;;;;;;;22.52;41.33;97348.09;2107285;28;20199;-59
2022/06/17 07:54:44;;;;;;;272.05;244.75;;;;;;;22.89;40.18;97350.34;2109120;28;20316;-59
2022/06/17 07:55:45;;;;;;;251.98;183.88;;;;;;;23.22;38.75;97346.66;2109865;28;20720;-59
2022/06/17 07:56:47;;;;;;;229.93;198.07;;;;;;;23.49;38.65;97350.63;2107004;28;20289;-59
2022/06/17 07:57:49;;;;;;;251.98;223.52;;;;;;;23.12;39.60;97351.91;2097549;28;20627;-58
2022/06/17 07:58:51;;;;;;;130.95;36.80;;;;;;;22.85;38.45;97341.75;2098133;28;20210;-59
2022/06/17 07:59:52;;;;;;;114.97;29.55;;;;;;;22.52;38.01;97354.25;2095106;28;20207;-59
2022/06/17 08:00:55;;;;;;;139.07;52.55;;;;;;;21.91;38.94;97355.53;2097741;28;20199;-59
2022/06/17 08:01:57;;;;;;;115.38;12.70;;;;;;;21.65;39.82;97347.84;2098461;28;20488;-59
2022/06/17 08:02:58;;;;;;;113.22;15.20;;;;;;;22.45;38.99;97355.75;2100198;28;20199;-59
2022/06/17 08:04:00;;;;;;;109.18;17.30;;;;;;;22.83;38.38;97338.41;2100511;28;20195;-59
2022/06/17 08:05:02;;;;;;;109.78;16.25;;;;;;;23.37;37.57;97349.84;2101511;28;20671;-59
2022/06/17 08:06:04;;;;;;;124.68;14.73;;;;;;;23.85;37.12;97361.72;2100031;28;20204;-59
2022/06/17 08:07:05;;;;;;;123.20;15.63;;;;;;;24.03;36.67;97347.78;2089320;28;20227;-59
2022/06/17 08:08:08;;;;;;;122.35;37.83;;;;;;;23.28;37.78;97338.16;2094434;28;20215;-59
2022/06/17 08:09:09;;;;;;;151.00;92.65;;;;;;;23.75;37.04;97350.16;2094649;28;20195;-59
2022/06/17 08:10:17;;;;;;;162.50;114.53;;;;;;;23.95;36.35;97357.28;2097152;28;20368;-59
2022/06/17 08:11:19;;;;;;;163.32;111.38;;;;;;;24.12;36.47;97352.28;2098231;28;20231;-59
2022/06/17 08:12:20;;;;;;;154.07;38.92;;;;;;;23.89;35.64;97348.97;2098462;28;20250;-59
2022/06/17 08:13:24;;;;;;;119.35;19.65;;;;;;;23.46;35.88;97353.53;2099924;28;20200;-57
2022/06/17 08:14:25;;;;;;;113.47;21.13;;;;;;;23.48;36.23;97349.75;2101028;28;20192;-57
2022/06/17 08:15:27;;;;;;;145.07;64.65;;;;;;;23.48;36.19;97349.75;2100277;28;20796;-57
2022/06/17 08:16:28;;;;;;;119.38;15.85;;;;;;;23.47;36.13;97352.56;2097629;28;20199;-57
2022/06/17 08:17:30;;;;;;;114.43;16.73;;;;;;;23.62;35.92;97347.72;2097945;28;20298;-57
2022/06/17 08:18:33;;;;;;;109.75;16.67;;;;;;;23.99;35.92;97336.53;2098497;28;20200;-57
2022/06/17 08:19:34;;;;;;;116.40;17.90;;;;;;;24.39;35.37;97359.66;2100724;28;20195;-57
2022/06/17 08:20:36;;;;;;;115.45;13.93;;;;;;;24.64;35.04;97351.25;2100107;28;20310;-57
2022/06/17 08:21:37;;;;;;;137.65;21.75;;;;;;;24.75;35.59;97354.63;2100023;28;20200;-57
2022/06/17 08:22:59;;;;;;;145.02;55.38;;;;;;;25.07;35.50;97352.66;2108782;28;20297;-57
2022/06/17 08:24:00;;;;;;;130.00;42.63;;;;;;;25.33;35.32;97346.69;2104577;28;20643;-58
2022/06/17 08:25:03;;;;;;;116.82;22.20;;;;;;;25.28;34.96;97328.44;2104955;28;20195;-57
2022/06/17 08:26:04;;;;;;;106.30;8.77;;;;;;;25.34;34.85;97327.84;2106740;28;20705;-57
2022/06/17 08:27:06;;;;;;;115.40;15.25;;;;;;;25.21;34.80;97344.19;2103100;28;20552;-57
2022/06/17 08:28:09;;;;;;;110.75;20.63;;;;;;;25.43;34.44;97345.72;2103494;28;20578;-57
2022/06/17 08:29:11;;;;;;;119.38;17.65;;;;;;;25.47;33.33;97342.75;2108769;28;20203;-57
2022/06/17 08:53:51;;;;;;;141.02;66.93;;;;;;;23.59;36.33;97348.84;2084183;28;21075;-58
2022/06/17 08:55:11;;;;;;;135.15;63.42;;;;;;;23.19;36.86;97340.78;2084343;28;20197;-58
2022/06/17 08:56:21;;;;;;;149.23;87.20;;;;;;;23.96;35.89;97342.97;2085535;28;20207;-59
2022/06/17 08:57:54;;;;;;;149.10;95.10;;;;;;;24.29;35.57;97348.13;2078439;28;20225;-59
2022/06/17 08:59:20;;;;;;;160.82;75.05;;;;;;;24.93;34.55;97340.59;2071526;28;20194;-59
2022/06/17 09:00:43;;;;;;;113.05;16.00;;;;;;;25.16;33.31;97354.47;2072254;28;20599;-59
2022/06/17 09:01:58;;;;;;;112.90;12.43;;;;;;;24.59;34.69;97354.31;2074871;28;20493;-59
2022/06/17 09:03:02;;;;;;;140.35;72.88;;;;;;;25.49;34.80;97348.81;2072286;28;20201;-59
2022/06/17 09:04:33;;;;;;;131.38;56.17;;;;;;;26.10;33.86;97360.81;2073086;28;20208;-57
2022/06/17 09:05:40;;;;;;;114.03;27.83;;;;;;;26.59;32.97;97356.97;2066528;28;20218;-57
2022/06/17 09:07:15;;;;;;;107.97;14.48;;;;;;;27.08;32.20;97349.41;2068446;28;20211;-57
2022/06/17 09:08:46;;;;;;;121.05;18.33;;;;;;;27.18;30.89;97357.34;2075439;28;20225;-57
2022/06/17 09:10:18;;;;;;;107.80;17.85;;;;;;;27.12;30.51;97360.66;2070676;28;20194;-57
2022/06/17 09:11:24;;;;;;;112.75;22.70;;;;;;;26.59;31.64;97352.47;2073297;28;20208;-57
2022/06/17 09:12:36;;;;;;;114.90;25.67;;;;;;;26.99;31.68;97350.34;2072963;28;20763;-57
2022/06/17 09:14:09;;;;;;;134.90;61.20;;;;;;;26.11;31.57;97346.44;2071521;28;20317;-57
2022/06/17 09:15:36;;;;;;;111.82;21.48;;;;;;;26.39;32.55;97341.91;2073780;28;20198;-57
2022/06/17 09:17:08;;;;;;;112.85;18.20;;;;;;;26.91;31.98;97353.81;2072374;28;20293;-57
2022/06/17 09:18:20;;;;;;;133.00;56.97;;;;;;;26.72;30.81;97325.31;2070735;28;20221;-57
2022/06/17 09:19:28;;;;;;;128.88;57.33;;;;;;;26.88;31.50;97346.06;2072819;28;20205;-57
2022/06/17 09:20:35;;;;;;;141.65;59.35;;;;;;;27.31;30.72;97344.41;2073431;28;20204;-57
2022/06/17 09:21:50;;;;;;;129.02;56.72;;;;;;;27.78;30.54;97343.19;2074949;28;20199;-58
2022/06/17 09:22:57;;;;;;;121.55;47.67;;;;;;;27.44;31.20;97352.03;2070356;28;20206;-57
2022/06/17 09:24:05;;;;;;;119.10;40.60;;;;;;;27.48;30.55;97345.34;2073050;28;20649;-57
2022/06/17 09:25:12;;;;;;;118.28;40.38;;;;;;;27.66;31.27;97342.59;2072769;28;20201;-57
2022/06/17 09:26:22;;;;;;;108.05;17.75;;;;;;;27.73;30.45;97348.19;2073676;28;20201;-58
2022/06/17 09:27:28;;;;;;;109.78;24.02;;;;;;;27.94;30.36;97355.81;2071261;28;20232;-57
2022/06/17 09:28:37;;;;;;;138.63;57.08;;;;;;;27.42;30.20;97331.75;2071339;28;20537;-57
2022/06/17 09:29:45;;;;;;;109.20;17.20;;;;;;;27.36;30.52;97343.91;2071100;28;20201;-57
2022/06/17 09:30:53;;;;;;;122.35;34.42;;;;;;;27.70;30.10;97354.69;2072640;28;20208;-58
2022/06/17 09:32:11;;;;;;;170.13;106.85;;;;;;;28.02;29.15;97349.63;2069978;28;20205;-57
2022/06/17 09:33:32;;;;;;;149.65;95.15;;;;;;;28.15;29.26;97339.34;2070737;28;20251;-58
2022/06/17 09:34:48;;;;;;;177.52;144.18;;;;;;;28.19;28.44;97337.16;2070390;28;20204;-58
2022/06/17 09:36:09;;;;;;;185.27;142.27;;;;;;;28.25;28.70;97335.66;2072998;28;20252;-58
2022/06/17 09:37:28;;;;;;;191.02;169.75;;;;;;;28.13;28.92;97287.63;2072405;28;20229;-57
2022/06/17 09:38:50;;;;;;;189.70;169.05;;;;;;;28.73;28.46;97349.38;2072444;28;20739;-57
2022/06/17 09:40:01;;;;;;;161.70;101.57;;;;;;;28.73;28.04;97347.53;2073284;28;20194;-57
2022/06/17 09:41:18;;;;;;;150.00;72.75;;;;;;;28.64;27.75;97341.25;2073398;28;20671;-58
2022/06/17 09:42:26;;;;;;;140.82;60.25;;;;;;;28.67;28.54;97353.56;2072677;28;20220;-58
2022/06/17 09:43:34;;;;;;;212.77;191.00;;;;;;;28.51;29.09;97346.28;2070208;28;20226;-58
2022/06/17 09:44:46;;;;;;;175.75;137.45;;;;;;;28.72;28.99;97348.56;2073267;28;20229;-58
2022/06/17 09:45:56;;;;;;;192.45;170.93;;;;;;;28.76;28.69;97352.56;2072608;28;20209;-58
2022/06/17 09:47:07;;;;;;;182.85;159.65;;;;;;;28.90;28.54;97328.72;2073188;28;20533;-57
2022/06/17 09:48:18;;;;;;;139.60;74.10;;;;;;;28.22;29.33;97342.19;2075915;28;20280;-57
2022/06/17 09:49:33;;;;;;;161.98;115.22;;;;;;;28.59;28.37;97348.16;2076552;28;20212;-57
2022/06/17 09:50:43;;;;;;;108.65;10.32;;;;;;;27.15;28.48;97353.16;2072943;28;20898;-57
2022/06/17 09:52:00;;;;;;;110.07;5.78;;;;;;;27.10;29.03;97349.28;2073050;28;20536;-57
2022/06/17 09:53:10;;;;;;;163.80;60.53;;;;;;;27.59;28.19;97333.53;2075497;28;20229;-57
2022/06/17 10:18:33;;;;;;;144.13;72.35;;;;;;;25.68;31.25;97337.19;2083518;28;20571;-57
2022/06/17 10:19:53;;;;;;;140.95;77.85;;;;;;;26.24;30.03;97338.91;2078709;28;20251;-58
2022/06/17 10:21:16;;;;;;;161.80;104.15;;;;;;;26.84;28.67;97340.19;2078305;28;20209;-57
2022/06/17 10:22:29;;;;;;;139.80;54.63;;;;;;;26.79;28.41;97342.50;2073223;28;20218;-57
2022/06/17 10:23:50;;;;;;;141.75;62.05;;;;;;;26.03;29.09;97330.25;2070683;28;20208;-57
2022/06/17 10:25:12;;;;;;;121.88;27.95;;;;;;;26.10;28.96;97339.41;2070389;28;20201;-57
2022/06/17 10:26:45;;;;;;;136.63;43.80;;;;;;;26.68;28.32;97331.97;2070378;28;20193;-57
2022/06/17 10:28:07;;;;;;;116.28;25.95;;;;;;;27.14;27.82;97337.22;2070058;28;20743;-57
2022/06/17 10:29:26;;;;;;;129.65;51.28;;;;;;;26.72;28.19;97326.13;2070132;28;20190;-57
2022/06/17 10:30:37;;;;;;;115.50;26.15;;;;;;;27.31;28.30;97343.53;2068439;28;20274;-57
2022/06/17 10:31:44;;;;;;;127.00;40.05;;;;;;;27.30;27.59;97350.75;2070318;28;20202;-57
2022/06/17 10:32:51;;;;;;;161.70;110.63;;;;;;;26.84;27.72;97348.22;2069018;28;20217;-57
2022/06/17 10:33:55;;;;;;;174.00;113.72;;;;;;;26.31;28.16;97338.28;2070314;28;20200;-57
2022/06/17 10:34:59;;;;;;;187.05;158.65;;;;;;;26.59;28.16;97346.25;2069762;28;20212;-57
2022/06/17 10:36:01;;;;;;;167.40;108.00;;;;;;;26.08;28.55;97349.44;2069503;28;20205;-57
2022/06/17 10:37:05;;;;;;;178.95;145.40;;;;;;;27.41;27.54;97346.97;2063056;28;20240;-57
2022/06/17 10:38:10;;;;;;;120.70;31.60;;;;;;;28.49;27.13;97341.09;2077500;28;20276;-57
2022/06/17 10:39:18;;;;;;;151.40;79.85;;;;;;;28.89;25.87;97341.31;2074482;28;20205;-57
2022/06/17 10:40:23;;;;;;;165.18;104.90;;;;;;;29.54;25.54;97338.78;2069684;28;20194;-57
2022/06/17 10:41:25;;;;;;;153.43;91.03;;;;;;;30.01;25.20;97346.03;2069584;28;20603;-57
2022/06/17 10:42:28;;;;;;;110.40;11.05;;;;;;;28.96;23.94;97346.88;2066113;28;20264;-56
2022/06/17 10:43:36;;;;;;;109.07;7.15;;;;;;;28.09;26.18;97337.28;2077493;28;20197;-57
2022/06/17 10:44:38;;;;;;;108.35;9.52;;;;;;;28.99;25.44;97333.09;2069395;28;20198;-57
2022/06/17 10:45:40;;;;;;;113.60;9.02;;;;;;;29.87;24.96;97338.66;2069583;28;20201;-57
2022/06/17 10:46:47;;;;;;;110.65;7.22;;;;;;;30.10;25.19;97338.75;2070305;28;20205;-57
2022/06/17 10:48:03;;;;;;;110.28;5.97;;;;;;;30.59;24.16;97332.28;2070050;28;20221;-57
2022/06/17 10:49:19;;;;;;;106.50;4.78;;;;;;;30.81;24.54;97327.06;2070602;28;20209;-57
2022/06/17 10:50:23;;;;;;;107.10;12.40;;;;;;;30.88;23.31;97334.25;2069588;28;20194;-57
2022/06/17 10:51:27;;;;;;;120.40;41.60;;;;;;;30.03;24.06;97327.88;2070139;28;20200;-57
2022/06/17 10:52:39;;;;;;;152.40;97.32;;;;;;;30.64;22.59;97329.91;2065703;28;20239;-57
2022/06/17 10:53:46;;;;;;;164.75;121.30;;;;;;;29.90;22.94;97332.97;2069109;28;20198;-57
2022/06/17 10:54:51;;;;;;;134.67;74.63;;;;;;;30.35;22.52;97331.41;2068967;28;20253;-57
2022/06/17 10:56:00;;;;;;;132.97;73.53;;;;;;;30.87;21.59;97326.38;2070289;28;20434;-57
2022/06/17 10:57:06;;;;;;;145.57;77.07;;;;;;;30.85;22.37;97333.78;2061210;28;20922;-57
2022/06/17 10:58:09;;;;;;;141.77;90.70;;;;;;;30.93;22.54;97312.13;2077739;28;20454;-57
2022/06/17 10:59:13;;;;;;;145.80;96.27;;;;;;;30.87;23.55;97329.06;2074227;28;20427;-58
2022/06/17 11:00:23;;;;;;;148.77;86.03;;;;;;;30.92;22.75;97332.03;2070442;28;20784;-57
2022/06/17 11:01:45;;;;;;;151.63;96.90;;;;;;;31.09;23.21;97324.66;2069800;28;21006;-57
2022/06/17 11:02:47;;;;;;;144.23;85.40;;;;;;;30.08;23.46;97316.56;2069763;28;20446;-57
2022/06/17 11:03:50;;;;;;;136.67;79.90;;;;;;;30.44;23.60;97326.78;2070148;28;20704;-57
2022/06/17 11:05:00;;;;;;;140.57;79.07;;;;;;;30.88;23.82;97330.72;2070281;28;20427;-57
2022/06/17 11:06:11;;;;;;;150.90;87.97;;;;;;;30.86;23.03;97330.06;2069592;28;20921;-57
2022/06/17 11:07:34;;;;;;;275.60;179.90;;;;;;;31.07;23.62;97330.25;2063999;28;20987;-57
2022/06/17 11:08:40;;;;;;;140.33;77.33;;;;;;;31.53;22.52;97340.09;2076941;28;20426;-58
2022/06/17 11:10:02;;;;;;;127.80;62.43;;;;;;;31.66;22.26;97334.06;2070830;28;20794;-57
2022/06/17 11:12:34;;;;;;;127.83;61.37;;;;;;;31.57;22.20;97329.75;2065706;28;20933;-58
2022/06/17 11:13:35;;;;;;;123.70;54.17;;;;;;;30.59;22.25;97326.91;2077514;28;20460;-58
2022/06/17 11:14:46;;;;;;;125.67;56.73;;;;;;;30.67;22.87;97326.81;2070751;28;20435;-57
2022/06/17 11:15:53;;;;;;;124.30;62.13;;;;;;;30.76;22.82;97325.75;2069087;28;20787;-57
2022/06/17 11:16:54;;;;;;;126.50;58.03;;;;;;;31.27;22.55;97314.41;2068602;28;20670;-57
2022/06/17 11:18:08;;;;;;;118.77;49.97;;;;;;;31.39;22.35;97336.34;2069908;28;21016;-58
2022/06/17 11:19:17;;;;;;;122.57;55.40;;;;;;;31.55;22.45;97315.59;2069647;28;20423;-58
2022/06/17 11:20:26;;;;;;;120.10;49.83;;;;;;;32.15;21.90;97340.75;2069056;28;20493;-57
2022/06/17 11:21:53;;;;;;;118.60;48.17;;;;;;;32.48;21.66;97336.75;2060597;28;20442;-58
2022/06/17 11:22:58;;;;;;;118.97;48.87;;;;;;;32.22;22.02;97332.75;2077641;28;20429;-57
2022/06/17 11:24:01;;;;;;;123.30;53.30;;;;;;;32.23;21.51;97337.13;2075528;28;20576;-57
2022/06/17 11:25:15;;;;;;;124.83;57.80;;;;;;;31.16;21.21;97322.94;2069709;28;20784;-57
2022/06/17 11:26:20;;;;;;;123.70;61.57;;;;;;;31.02;22.23;97332.63;2069969;28;20434;-57
2022/06/17 11:27:30;;;;;;;120.10;55.30;;;;;;;31.55;21.86;97329.09;2063467;28;20999;-58
2022/06/17 11:28:35;;;;;;;124.73;52.60;;;;;;;31.68;21.73;97325.78;2077295;28;20785;-58
2022/06/17 11:29:42;;;;;;;133.53;58.63;;;;;;;31.19;22.46;97330.63;2059582;28;20429;-58
2022/06/17 11:30:56;;;;;;;124.50;56.20;;;;;;;31.86;21.37;97330.81;2060799;28;20462;-58
2022/06/17 11:32:10;;;;;;;120.70;54.37;;;;;;;31.42;21.87;97332.44;2062300;28;20431;-58
2022/06/17 11:33:56;;;;;;;124.70;60.70;;;;;;;31.49;20.94;97330.69;2064888;28;20419;-58
2022/06/17 11:35:27;;;;;;;120.43;54.37;;;;;;;30.44;21.83;97326.78;2064542;28;20440;-58
2022/06/17 11:36:35;;;;;;;116.40;43.53;;;;;;;30.77;22.02;97305.84;2063645;28;20439;-58
2022/06/17 11:37:38;;;;;;;116.83;44.50;;;;;;;30.25;22.07;97323.53;2061108;28;20473;-58
2022/06/17 11:38:44;;;;;;;117.60;38.80;;;;;;;29.69;22.68;97315.50;2070771;28;20458;-57
2022/06/17 11:40:09;;;;;;;122.30;55.57;;;;;;;30.22;22.78;97314.97;2064275;28;20427;-57
2022/06/17 11:41:18;;;;;;;125.13;47.87;;;;;;;30.67;21.68;97304.44;2064322;28;20435;-57
2022/06/17 11:42:24;;;;;;;119.97;53.17;;;;;;;31.02;21.07;97321.84;2061874;28;21006;-58
2022/06/17 11:43:32;;;;;;;126.40;51.80;;;;;;;31.13;21.17;97327.84;2072003;28;21141;-57
2022/06/17 11:44:33;;;;;;;124.83;52.77;;;;;;;31.00;21.72;97320.34;2065508;28;20907;-57
2022/06/17 11:45:39;;;;;;;121.97;56.03;;;;;;;30.69;21.79;97324.81;2064457;28;20789;-58
2022/06/17 11:46:57;;;;;;;122.70;51.53;;;;;;;30.53;22.50;97300.69;2063965;28;20435;-57
2022/06/17 11:48:05;;;;;;;130.10;69.00;;;;;;;31.37;22.59;97321.38;2064348;28;20440;-57
2022/06/17 11:49:11;;;;;;;125.47;58.80;;;;;;;31.90;21.99;97315.91;2063743;28;20420;-58
2022/06/17 11:50:25;;;;;;;129.53;54.50;;;;;;;32.30;21.35;97305.59;2064358;28;20430;-57
2022/06/17 11:51:49;;;;;;;114.30;40.93;;;;;;;32.48;19.87;97310.59;2064343;28;20803;-57
2022/06/17 11:52:52;;;;;;;118.00;42.60;;;;;;;32.65;20.28;97313.06;2064193;28;20444;-58
2022/06/17 11:53:56;;;;;;;109.60;34.50;;;;;;;32.81;19.75;97307.41;2064395;28;20744;-58
2022/06/17 11:54:59;;;;;;;110.40;38.77;;;;;;;32.92;19.71;97302.50;2063173;28;20993;-58
2022/06/17 11:56:01;;;;;;;118.40;48.40;;;;;;;32.94;20.32;97301.28;2065922;28;20907;-57
2022/06/17 11:57:33;;;;;;;107.77;37.47;;;;;;;33.04;20.02;97299.06;2057020;28;20475;-56
2022/06/17 11:58:52;;;;;;;110.67;41.60;;;;;;;33.39;19.97;97284.78;2071482;28;20529;-57
2022/06/17 11:59:56;;;;;;;113.97;47.00;;;;;;;33.72;20.01;97286.00;2064318;28;20455;-58
2022/06/17 12:01:12;;;;;;;202.80;107.50;;;;;;;33.02;19.74;97293.00;2064500;28;20683;-58
2022/06/17 12:02:14;;;;;;;141.40;57.23;;;;;;;32.96;19.92;97276.75;2058124;28;20478;-58
2022/06/17 12:03:39;;;;;;;130.80;53.47;;;;;;;33.26;19.77;97293.59;2071691;28;20431;-58
2022/06/17 12:04:48;;;;;;;103.20;28.90;;;;;;;33.18;19.65;97293.78;2064706;28;20432;-59
2022/06/17 12:05:59;;;;;;;98.50;15.60;;;;;;;30.71;20.85;97284.19;2062740;28;20459;-58
2022/06/17 12:07:00;;;;;;;103.33;27.37;;;;;;;30.41;21.67;97286.72;2053060;28;20455;-58
2022/06/17 12:08:20;;;;;;;124.47;62.27;;;;;;;31.47;21.68;97281.47;2063815;28;20439;-58
2022/06/17 12:09:38;;;;;;;125.57;62.20;;;;;;;32.82;20.79;97287.44;2067172;28;20456;-57
2022/06/17 12:10:47;;;;;;;114.67;46.97;;;;;;;32.59;20.51;97289.50;2063704;28;20439;-58
2022/06/17 12:11:53;;;;;;;120.07;55.93;;;;;;;33.18;20.74;97280.25;2054140;28;20436;-58
2022/06/17 12:13:21;;;;;;;115.87;52.40;;;;;;;33.14;20.61;97284.34;2071856;28;20427;-58
2022/06/17 12:15:01;;;;;;;104.10;31.53;;;;;;;31.69;20.78;97290.53;2066944;28;20432;-58
2022/06/17 12:16:13;;;;;;;109.10;38.50;;;;;;;32.02;21.21;97283.84;2062503;28;21036;-58
2022/06/17 12:17:17;;;;;;;101.70;27.90;;;;;;;32.90;20.05;97278.38;2062686;28;20495;-58
2022/06/17 12:18:34;;;;;;;107.60;38.33;;;;;;;33.48;19.58;97280.03;2064154;28;20432;-58
2022/06/17 12:19:35;;;;;;;107.97;32.30;;;;;;;31.58;21.12;97280.19;2062950;28;20467;-58
2022/06/17 12:20:40;;;;;;;102.77;26.10;;;;;;;32.27;20.24;97278.97;2064279;28;20947;-58
2022/06/17 12:22:03;;;;;;;105.00;33.53;;;;;;;33.01;19.99;97275.13;2063660;28;20423;-59
2022/06/17 12:23:17;;;;;;;115.30;35.17;;;;;;;33.56;19.19;97281.75;2063964;28;20474;-58
2022/06/17 12:24:33;;;;;;;108.60;8.83;;;;;;;33.54;18.26;97279.25;2064151;28;20818;-58
2022/06/17 12:25:51;;;;;;;94.70;13.87;;;;;;;32.46;19.75;97274.00;2063129;28;20432;-59
2022/06/17 12:27:04;;;;;;;98.60;18.50;;;;;;;32.59;19.77;97267.88;2055196;28;20432;-58
2022/06/17 12:28:33;;;;;;;97.77;14.33;;;;;;;32.20;19.54;97270.81;2071561;28;20427;-58
2022/06/17 12:29:58;;;;;;;98.47;12.20;;;;;;;31.94;20.35;97251.59;2065184;28;20443;-59
2022/06/17 12:31:11;;;;;;;98.60;22.53;;;;;;;32.76;20.05;97273.88;2063021;28;20911;-58
2022/06/17 12:32:19;;;;;;;107.97;33.40;;;;;;;33.70;20.23;97273.50;2063743;28;20491;-58
2022/06/17 12:33:32;;;;;;;101.43;26.13;;;;;;;33.07;19.89;97262.69;2062819;28;20428;-58
2022/06/17 12:34:52;;;;;;;111.27;42.07;;;;;;;33.69;19.99;97266.41;2064125;28;20431;-59
2022/06/17 12:36:22;;;;;;;115.67;36.30;;;;;;;33.55;19.07;97264.69;2063388;28;20451;-58
2022/06/17 12:37:48;;;;;;;99.87;24.90;;;;;;;33.95;19.41;97269.47;2058231;28;20466;-59
2022/06/17 12:39:10;;;;;;;94.30;14.90;;;;;;;34.14;18.53;97265.16;2070244;28;20458;-58
2022/06/17 12:40:32;;;;;;;89.00;8.47;;;;;;;34.01;18.28;97265.94;2063101;28;20842;-58
2022/06/17 12:42:04;;;;;;;95.50;9.20;;;;;;;33.44;18.67;97262.53;2063497;28;20432;-58
2022/06/17 12:43:09;;;;;;;89.90;6.03;;;;;;;33.00;19.25;97262.63;2064166;28;20436;-58
2022/06/17 12:44:39;;;;;;;94.47;11.10;;;;;;;33.50;18.92;97261.75;2064333;28;20428;-59
2022/06/17 12:45:50;;;;;;;95.43;15.67;;;;;;;33.83;19.15;97267.34;2063701;28;20485;-59
2022/06/17 12:47:16;;;;;;;100.80;19.47;;;;;;;34.03;19.16;97263.88;2054091;28;20444;-58
2022/06/17 12:54:10;;;;;;;93.30;13.33;;;;;;;33.89;18.79;97238.63;2050175;28;20600;-59
2022/06/17 12:55:29;;;;;;;90.50;8.20;;;;;;;32.04;20.02;97254.81;2049119;28;20835;-59
2022/06/17 12:56:45;;;;;;;92.90;13.10;;;;;;;32.26;19.81;97252.16;2051098;28;20974;-59
2022/06/17 12:58:18;;;;;;;94.27;14.33;;;;;;;30.45;21.34;97253.88;2046433;28;20495;-58
2022/06/17 12:59:37;;;;;;;117.83;47.50;;;;;;;32.62;20.58;97249.41;2052274;28;20540;-58
2022/06/17 13:00:38;;;;;;;111.53;39.83;;;;;;;33.44;19.43;97257.94;2050195;28;20455;-59
2022/06/17 13:01:44;;;;;;;118.50;40.30;;;;;;;33.31;19.02;97249.78;2051032;28;20476;-59
2022/06/17 13:03:14;;;;;;;103.13;25.27;;;;;;;33.57;19.35;97257.19;2045130;28;20551;-59
2022/06/17 13:04:37;;;;;;;111.97;34.67;;;;;;;34.09;19.00;97256.81;2052042;28;20867;-58
2022/06/17 13:05:46;;;;;;;96.30;17.13;;;;;;;34.19;18.47;97262.66;2049957;28;20433;-59
2022/06/17 13:06:56;;;;;;;93.77;9.93;;;;;;;32.95;19.36;97250.72;2049435;28;20430;-58
2022/06/17 13:08:36;;;;;;;90.50;8.30;;;;;;;32.58;19.52;97249.97;2052648;28;20441;-59
2022/06/17 13:11:34;;;;;;;111.87;38.90;;;;;;;33.05;20.15;97257.47;2052661;28;20429;-59
2022/06/17 13:12:41;;;;;;;121.20;50.27;;;;;;;33.78;19.95;97241.88;2043309;28;21023;-58
2022/06/17 13:13:50;;;;;;;125.83;55.43;;;;;;;34.28;19.19;97257.91;2050464;28;20430;-59
2022/06/17 13:15:05;;;;;;;117.10;52.30;;;;;;;34.55;19.06;97253.41;2051958;28;20949;-58
2022/06/17 13:16:14;;;;;;;99.40;23.60;;;;;;;33.48;18.50;97245.69;2050483;28;20432;-58
2022/06/17 13:17:34;;;;;;;102.00;22.17;;;;;;;31.17;21.01;97245.56;2042086;28;20556;-58
2022/06/17 13:19:05;;;;;;;105.27;34.70;;;;;;;32.27;19.40;97241.16;2048648;28;20856;-58
2022/06/17 13:20:14;;;;;;;115.63;15.67;;;;;;;30.16;21.38;97245.66;2052597;28;20436;-58
2022/06/17 13:21:46;;;;;;;107.37;35.37;;;;;;;31.92;20.92;97233.72;2050600;28;20937;-58
2022/06/17 13:22:53;;;;;;;116.67;48.67;;;;;;;33.18;19.72;97237.78;2042205;28;20810;-59
2022/06/17 13:24:02;;;;;;;110.00;28.57;;;;;;;32.39;19.52;97234.22;2049369;28;20434;-58
2022/06/17 13:25:23;;;;;;;109.17;24.97;;;;;;;31.33;19.42;97231.06;2065067;28;20435;-58